Terminal Aerodrome Forecast
Issued by NWS

Home | Current Version | Previous Version | Text Only | Print | Product List | Glossary On
Versions: 1 2 3 4 5 6 7 8 9 10 11 12 13 14 15 16 17 18 19 20 21 22 23 24 25 26 27 28 29 30 31 32 33 34 35 36 37 38 39 40
000
FTUS43 KDMX 261744
TAFOTM
TAF
KOTM 261744Z 2618/2718 09011KT 3SM -SN BKN007 OVC015
      TEMPO 2618/2620 1SM -SN
     FM262300 34011KT 5SM -SN BKN012 OVC025
     FM270300 32013G18KT P6SM SCT015 BKN030
     FM271400 31010KT P6SM SCT030=

USA.gov is the U.S. government's official web portal to all federal, state and local government web resources and services.